Time;durP1;ratioP1;P1;durP2;ratioP2;P2;SDS_P1;SDS_P2;PMS_P1;PMS_P2;Temp;Humidity;BMP_temperature;BMP_pressure;BME280_temperature;BME280_humidity;BME280_pressure;Samples;Min_cycle;Max_cycle;Signal;HPM_P1;HPM_P2
2022/10/09 00:01:00;;;;;;;20.83;3.08;;;;;;;;;;5038011;28;20029;-75
2022/10/09 00:03:26;;;;;;;22.98;3.50;;;;;;;;;;5046280;28;20077;-74
2022/10/09 00:05:52;;;;;;;24.17;3.33;;;;;;;;;;5029231;28;20080;-74
2022/10/09 00:08:18;;;;;;;20.33;3.20;;;;;;;;;;5053102;28;20029;-74
2022/10/09 00:10:45;;;;;;;20.35;3.67;;;;;;;;;;5054298;28;20025;-75
2022/10/09 00:13:11;;;;;;;24.05;3.65;;;;;;;;;;5053951;28;20069;-75
2022/10/09 00:15:40;;;;;;;15.73;2.70;;;;;;;;;;5039116;28;20025;-74
2022/10/09 00:18:07;;;;;;;19.63;3.17;;;;;;;;;;5037328;28;20032;-75
2022/10/09 00:20:40;;;;;;;15.15;2.95;;;;;;;;;;5021842;28;20385;-73
2022/10/09 00:23:07;;;;;;;15.30;3.13;;;;;;;;;;5040252;28;20375;-76
2022/10/09 00:25:34;;;;;;;24.98;4.85;;;;;;;;;;5036573;28;20025;-74
2022/10/09 00:28:00;;;;;;;20.95;3.50;;;;;;;;;;5017817;28;20375;-75
2022/10/09 00:30:26;;;;;;;20.70;3.08;;;;;;;;;;5036627;28;20091;-74
2022/10/09 00:32:52;;;;;;;24.83;3.67;;;;;;;;;;5036340;28;20025;-75
2022/10/09 00:35:18;;;;;;;17.00;3.00;;;;;;;;;;5036739;28;20065;-75
2022/10/09 00:37:45;;;;;;;29.20;3.75;;;;;;;;;;5036234;28;20025;-74
2022/10/09 00:40:11;;;;;;;20.63;3.50;;;;;;;;;;5036823;28;20105;-75
2022/10/09 00:42:37;;;;;;;22.10;3.20;;;;;;;;;;5041310;28;20024;-75
2022/10/09 00:45:03;;;;;;;20.65;3.65;;;;;;;;;;5024642;28;20109;-75
2022/10/09 00:47:33;;;;;;;19.25;3.00;;;;;;;;;;5017816;28;20406;-74
2022/10/09 00:50:19;;;;;;;14.48;2.95;;;;;;;;;;5035144;28;20438;-74
2022/10/09 00:52:46;;;;;;;16.35;2.75;;;;;;;;;;5034759;28;20486;-75
2022/10/09 00:55:13;;;;;;;34.35;7.45;;;;;;;;;;5034893;28;20101;-75
2022/10/09 00:57:39;;;;;;;24.10;3.17;;;;;;;;;;5034469;28;20029;-76
2022/10/09 01:00:07;;;;;;;35.30;4.13;;;;;;;;;;5034836;28;20030;-76
2022/10/09 01:02:33;;;;;;;21.35;3.17;;;;;;;;;;5016901;28;20112;-75
2022/10/09 01:04:59;;;;;;;16.58;3.03;;;;;;;;;;5034379;28;20082;-75
2022/10/09 01:07:34;;;;;;;15.63;3.20;;;;;;;;;;5034143;28;20022;-75
2022/10/09 01:10:00;;;;;;;;;;;;;;;;;;5035191;28;20038;-75
2022/10/09 01:12:26;;;;;;;25.88;3.03;;;;;;;;;;5033855;28;19905;-75
2022/10/09 01:14:58;;;;;;;23.10;3.33;;;;;;;;;;5034206;28;20047;-75
2022/10/09 01:17:33;;;;;;;20.27;2.95;;;;;;;;;;5034213;28;20481;-75
2022/10/09 01:19:59;;;;;;;;;;;;;;;;;;5034988;28;20106;-75
2022/10/09 01:22:31;;;;;;;29.48;3.00;;;;;;;;;;5034548;28;20354;-74
2022/10/09 01:25:08;;;;;;;23.00;3.10;;;;;;;;;;5034264;28;20030;-74
2022/10/09 01:27:35;;;;;;;20.27;3.17;;;;;;;;;;5033929;28;20033;-74
2022/10/09 01:30:04;;;;;;;22.75;3.30;;;;;;;;;;5034681;28;20021;-74
2022/10/09 01:32:36;;;;;;;18.05;3.17;;;;;;;;;;5036709;28;20087;-75
2022/10/09 01:35:04;;;;;;;18.02;3.00;;;;;;;;;;5044910;28;20083;-75
2022/10/09 01:37:31;;;;;;;17.40;2.92;;;;;;;;;;5044164;28;20022;-74
2022/10/09 01:39:57;;;;;;;25.08;3.05;;;;;;;;;;5023201;28;20025;-75
2022/10/09 01:42:24;;;;;;;29.00;3.67;;;;;;;;;;5034527;28;20510;-75
2022/10/09 01:44:50;;;;;;;23.02;2.72;;;;;;;;;;5034197;28;20053;-74
2022/10/09 01:47:17;;;;;;;14.57;2.78;;;;;;;;;;5033743;28;20392;-75
2022/10/09 01:49:55;;;;;;;17.80;2.95;;;;;;;;;;5034256;28;20026;-75
2022/10/09 01:52:24;;;;;;;20.83;3.08;;;;;;;;;;5034002;28;20021;-74
2022/10/09 01:55:08;;;;;;;26.42;3.00;;;;;;;;;;5033933;28;20474;-75
2022/10/09 01:57:40;;;;;;;17.23;3.13;;;;;;;;;;5033554;28;20029;-75
2022/10/09 02:00:07;;;;;;;18.92;2.97;;;;;;;;;;5015563;28;20029;-74
2022/10/09 02:02:35;;;;;;;19.25;3.22;;;;;;;;;;5033367;28;20105;-75
2022/10/09 02:05:01;;;;;;;21.95;3.45;;;;;;;;;;5033765;28;20521;-74
2022/10/09 02:07:27;;;;;;;19.85;3.15;;;;;;;;;;5033070;28;20063;-75
2022/10/09 02:09:53;;;;;;;17.20;3.08;;;;;;;;;;5033299;28;20100;-75
2022/10/09 02:12:21;;;;;;;16.92;3.05;;;;;;;;;;5033875;28;20072;-75
2022/10/09 02:14:48;;;;;;;21.80;3.03;;;;;;;;;;5033524;28;20375;-74
2022/10/09 02:17:18;;;;;;;18.60;3.60;;;;;;;;;;5033061;28;20032;-75
2022/10/09 02:19:49;;;;;;;14.93;2.83;;;;;;;;;;5034169;28;20104;-76
2022/10/09 02:22:17;;;;;;;24.48;3.67;;;;;;;;;;5043522;28;20022;-74
2022/10/09 02:24:44;;;;;;;25.33;3.17;;;;;;;;;;5051651;28;20081;-75
2022/10/09 02:27:11;;;;;;;27.73;3.00;;;;;;;;;;5039984;28;20025;-74
2022/10/09 02:29:38;;;;;;;19.23;2.95;;;;;;;;;;5033345;28;20025;-75
2022/10/09 02:32:04;;;;;;;19.38;3.42;;;;;;;;;;5034575;28;20386;-74
2022/10/09 02:34:31;;;;;;;17.10;3.05;;;;;;;;;;5053470;28;20081;-75
2022/10/09 02:36:57;;;;;;;22.00;3.72;;;;;;;;;;5038527;28;20021;-76
2022/10/09 02:39:23;;;;;;;13.45;3.03;;;;;;;;;;5033216;28;20036;-75
2022/10/09 02:41:49;;;;;;;21.08;3.65;;;;;;;;;;5049735;28;20037;-74
2022/10/09 02:44:15;;;;;;;21.38;3.80;;;;;;;;;;5031020;28;20026;-75
2022/10/09 02:46:41;;;;;;;19.38;3.17;;;;;;;;;;5034728;28;20037;-76
2022/10/09 02:49:07;;;;;;;25.75;4.35;;;;;;;;;;5033142;28;20483;-75
2022/10/09 02:51:33;;;;;;;14.77;3.00;;;;;;;;;;5015416;28;20022;-75
2022/10/09 02:53:59;;;;;;;28.33;3.80;;;;;;;;;;5033163;28;20028;-74
2022/10/09 02:56:25;;;;;;;18.98;3.38;;;;;;;;;;5033239;28;20080;-75
2022/10/09 02:58:51;;;;;;;24.88;3.22;;;;;;;;;;5032949;28;20034;-75
2022/10/09 03:01:17;;;;;;;22.75;3.50;;;;;;;;;;5032873;28;20101;-75
2022/10/09 03:03:43;;;;;;;12.90;2.90;;;;;;;;;;5035026;28;20029;-75
2022/10/09 03:06:10;;;;;;;22.85;3.45;;;;;;;;;;5034681;28;20026;-75
2022/10/09 03:08:38;;;;;;;16.40;3.83;;;;;;;;;;5035352;28;20525;-75
2022/10/09 03:11:04;;;;;;;25.92;4.85;;;;;;;;;;5034453;28;20034;-75
2022/10/09 03:13:31;;;;;;;18.48;3.25;;;;;;;;;;5034382;28;20041;-74
2022/10/09 03:16:10;;;;;;;23.52;3.40;;;;;;;;;;5032401;28;20053;-74
2022/10/09 03:18:36;;;;;;;21.65;3.15;;;;;;;;;;5032566;28;20060;-74
2022/10/09 03:21:06;;;;;;;20.55;3.58;;;;;;;;;;5032448;28;20429;-75
2022/10/09 03:23:32;;;;;;;13.77;2.80;;;;;;;;;;5033193;28;20483;-75
2022/10/09 03:25:58;;;;;;;18.73;3.72;;;;;;;;;;5037470;28;20034;-74
2022/10/09 03:28:25;;;;;;;18.60;3.78;;;;;;;;;;5042017;28;20477;-74
2022/10/09 03:30:51;;;;;;;22.42;4.07;;;;;;;;;;5048335;28;20025;-74
2022/10/09 03:33:17;;;;;;;19.48;3.10;;;;;;;;;;5048229;28;20025;-74
2022/10/09 03:35:44;;;;;;;19.20;3.65;;;;;;;;;;5048709;28;20033;-74
2022/10/09 03:38:10;;;;;;;22.65;3.83;;;;;;;;;;5044352;28;20058;-74
2022/10/09 03:40:36;;;;;;;17.05;3.92;;;;;;;;;;5043055;28;20025;-75
2022/10/09 03:43:02;;;;;;;18.15;3.70;;;;;;;;;;5042656;28;20509;-75
2022/10/09 03:45:28;;;;;;;16.58;2.78;;;;;;;;;;5034946;28;20494;-74
2022/10/09 03:47:54;;;;;;;29.90;3.40;;;;;;;;;;5035156;28;20021;-75
2022/10/09 03:50:20;;;;;;;12.10;3.30;;;;;;;;;;5039381;28;20029;-76
2022/10/09 03:52:46;;;;;;;19.88;3.65;;;;;;;;;;5044000;28;20065;-76
2022/10/09 03:55:12;;;;;;;15.95;4.18;;;;;;;;;;5021517;28;20033;-74
2022/10/09 03:57:38;;;;;;;21.08;3.67;;;;;;;;;;5034848;28;20472;-74
2022/10/09 04:00:05;;;;;;;16.20;3.25;;;;;;;;;;5034834;28;20109;-74
2022/10/09 04:02:31;;;;;;;17.85;3.60;;;;;;;;;;5035805;28;20080;-75
2022/10/09 04:04:57;;;;;;;25.05;4.00;;;;;;;;;;5035976;28;20467;-76
2022/10/09 04:07:23;;;;;;;13.65;3.50;;;;;;;;;;5035220;28;20017;-75
2022/10/09 04:09:49;;;;;;;19.92;3.92;;;;;;;;;;5036881;28;20036;-75
2022/10/09 04:12:15;;;;;;;23.30;4.22;;;;;;;;;;5046851;28;20057;-75
2022/10/09 04:14:41;;;;;;;15.32;3.85;;;;;;;;;;5049315;28;20053;-75
2022/10/09 04:17:07;;;;;;;21.02;3.92;;;;;;;;;;5035989;28;20033;-75
2022/10/09 04:19:33;;;;;;;18.35;3.90;;;;;;;;;;5035370;28;20449;-75
2022/10/09 04:21:59;;;;;;;14.23;3.40;;;;;;;;;;5035255;28;20104;-75
2022/10/09 04:24:25;;;;;;;15.73;3.75;;;;;;;;;;5035075;28;20037;-76
2022/10/09 04:26:52;;;;;;;13.50;3.15;;;;;;;;;;5035205;28;20025;-75
2022/10/09 04:29:18;;;;;;;20.85;3.45;;;;;;;;;;5034918;28;20065;-75
2022/10/09 04:31:44;;;;;;;11.65;3.08;;;;;;;;;;5017478;28;20106;-75
2022/10/09 04:34:10;;;;;;;15.50;3.30;;;;;;;;;;5035247;28;20055;-74
2022/10/09 04:36:36;;;;;;;9.60;3.05;;;;;;;;;;5035074;28;20021;-74
2022/10/09 04:39:02;;;;;;;16.23;3.10;;;;;;;;;;5020841;28;20480;-74
2022/10/09 04:41:28;;;;;;;18.75;4.30;;;;;;;;;;5035064;28;20025;-74
2022/10/09 04:43:55;;;;;;;19.17;3.42;;;;;;;;;;5035185;28;20087;-75
2022/10/09 04:46:21;;;;;;;16.60;3.72;;;;;;;;;;5034560;28;20032;-74
2022/10/09 04:48:47;;;;;;;12.23;3.47;;;;;;;;;;5035262;28;20053;-78
2022/10/09 04:51:14;;;;;;;17.88;3.33;;;;;;;;;;5037820;28;20034;-75
2022/10/09 04:53:40;;;;;;;13.52;3.28;;;;;;;;;;5046212;28;20110;-75
2022/10/09 04:56:07;;;;;;;9.77;3.13;;;;;;;;;;5047188;28;20052;-75
2022/10/09 04:58:35;;;;;;;16.77;3.28;;;;;;;;;;5042824;28;20104;-74
2022/10/09 05:01:04;;;;;;;13.77;3.33;;;;;;;;;;5046516;28;20036;-74
2022/10/09 05:03:30;;;;;;;13.25;3.33;;;;;;;;;;5057308;28;20030;-75
2022/10/09 05:06:00;;;;;;;15.23;3.55;;;;;;;;;;5048897;28;20041;-76
2022/10/09 05:08:25;;;;;;;17.88;3.83;;;;;;;;;;5046598;28;20094;-74
2022/10/09 05:10:51;;;;;;;13.63;3.85;;;;;;;;;;5050078;28;20026;-73
2022/10/09 05:13:17;;;;;;;13.88;4.03;;;;;;;;;;5048102;28;20033;-75
2022/10/09 05:15:43;;;;;;;13.20;3.05;;;;;;;;;;5046898;28;20022;-76
2022/10/09 05:18:09;;;;;;;11.57;3.80;;;;;;;;;;5049808;28;20029;-75
2022/10/09 05:20:40;;;;;;;10.98;3.40;;;;;;;;;;5050192;28;20055;-77
2022/10/09 05:23:06;;;;;;;13.57;3.25;;;;;;;;;;5051305;28;20029;-77
2022/10/09 05:25:31;;;;;;;12.88;2.97;;;;;;;;;;5045856;28;20379;-77
2022/10/09 05:27:59;;;;;;;13.48;3.47;;;;;;;;;;5043585;28;20033;-77
2022/10/09 05:30:25;;;;;;;10.32;3.20;;;;;;;;;;5047999;28;20017;-76
2022/10/09 05:32:51;;;;;;;13.50;3.45;;;;;;;;;;5047087;28;20032;-73
2022/10/09 05:35:16;;;;;;;13.00;3.60;;;;;;;;;;5037904;28;20033;-76
2022/10/09 05:37:45;;;;;;;10.48;3.42;;;;;;;;;;5035332;28;20029;-77
2022/10/09 05:40:11;;;;;;;11.73;3.80;;;;;;;;;;5018305;28;20474;-77
2022/10/09 05:42:37;;;;;;;14.38;4.22;;;;;;;;;;5034875;28;20048;-75
2022/10/09 05:45:03;;;;;;;13.88;3.80;;;;;;;;;;5034243;28;20123;-75
2022/10/09 05:47:30;;;;;;;13.30;3.63;;;;;;;;;;5034728;28;20071;-76
2022/10/09 05:49:56;;;;;;;8.15;3.35;;;;;;;;;;5034070;28;20026;-76
2022/10/09 05:52:22;;;;;;;13.30;3.88;;;;;;;;;;5034440;28;20025;-76
2022/10/09 05:54:49;;;;;;;19.23;4.72;;;;;;;;;;5034640;28;20021;-76
2022/10/09 05:57:15;;;;;;;15.55;4.28;;;;;;;;;;5038657;28;20483;-76
2022/10/09 05:59:41;;;;;;;16.17;5.60;;;;;;;;;;5053692;28;20120;-76
2022/10/09 06:02:07;;;;;;;17.48;5.00;;;;;;;;;;5048940;28;20064;-75
2022/10/09 06:04:33;;;;;;;20.70;5.78;;;;;;;;;;5041370;28;20044;-75
2022/10/09 06:06:59;;;;;;;19.08;5.28;;;;;;;;;;5057908;28;20029;-75
2022/10/09 06:09:25;;;;;;;20.30;6.03;;;;;;;;;;5058380;28;20017;-76
2022/10/09 06:11:52;;;;;;;18.30;5.50;;;;;;;;;;5058461;28;20044;-74
2022/10/09 06:14:20;;;;;;;21.77;5.30;;;;;;;;;;5055733;28;20571;-74
2022/10/09 06:16:47;;;;;;;22.23;5.10;;;;;;;;;;5055759;28;20017;-76
2022/10/09 06:19:14;;;;;;;16.70;5.10;;;;;;;;;;5057281;28;20029;-77
2022/10/09 06:21:40;;;;;;;17.42;5.15;;;;;;;;;;5056236;28;20085;-74
2022/10/09 06:24:06;;;;;;;17.10;5.10;;;;;;;;;;5057362;28;20025;-76
2022/10/09 06:26:32;;;;;;;19.63;5.88;;;;;;;;;;5056522;28;20053;-75
2022/10/09 06:28:59;;;;;;;18.73;5.53;;;;;;;;;;5054351;28;20038;-77
2022/10/09 06:31:28;;;;;;;22.08;6.55;;;;;;;;;;5054545;28;20073;-75
2022/10/09 06:33:54;;;;;;;23.30;5.90;;;;;;;;;;5053889;28;20077;-76
2022/10/09 06:36:22;;;;;;;21.48;5.88;;;;;;;;;;5054182;28;20025;-75
2022/10/09 06:38:48;;;;;;;14.07;5.43;;;;;;;;;;5025043;28;20532;-75
2022/10/09 06:41:15;;;;;;;23.98;5.85;;;;;;;;;;5034410;28;20108;-75
2022/10/09 06:43:42;;;;;;;17.67;5.30;;;;;;;;;;5035593;28;20083;-77
2022/10/09 06:46:09;;;;;;;23.65;6.18;;;;;;;;;;5036109;28;20034;-77
2022/10/09 06:48:36;;;;;;;24.40;6.75;;;;;;;;;;5037155;28;20181;-76
2022/10/09 06:51:02;;;;;;;16.08;5.63;;;;;;;;;;5035153;28;20108;-76
2022/10/09 06:53:29;;;;;;;20.52;6.38;;;;;;;;;;5036983;28;20053;-77
2022/10/09 06:55:56;;;;;;;15.27;5.40;;;;;;;;;;5019583;28;20191;-75
2022/10/09 06:58:22;;;;;;;31.50;6.22;;;;;;;;;;5032966;28;20033;-78
2022/10/09 07:00:48;;;;;;;19.67;5.75;;;;;;;;;;5018895;28;20028;-76
2022/10/09 07:03:14;;;;;;;14.73;5.25;;;;;;;;;;5037713;28;20022;-76
2022/10/09 07:05:40;;;;;;;15.95;5.47;;;;;;;;;;5034488;28;20411;-73
2022/10/09 07:08:06;;;;;;;20.02;5.70;;;;;;;;;;5033583;28;20525;-74
2022/10/09 07:10:32;;;;;;;29.00;6.38;;;;;;;;;;5034809;28;20033;-76
2022/10/09 07:12:58;;;;;;;20.80;6.22;;;;;;;;;;5037286;28;20037;-75
2022/10/09 07:15:24;;;;;;;18.92;6.28;;;;;;;;;;5036769;28;20025;-73
2022/10/09 07:17:51;;;;;;;30.17;6.32;;;;;;;;;;5035095;28;20026;-73
2022/10/09 07:20:17;;;;;;;23.48;6.15;;;;;;;;;;5036664;28;20022;-74
2022/10/09 07:22:43;;;;;;;18.65;6.35;;;;;;;;;;5036943;28;20390;-75
2022/10/09 07:25:10;;;;;;;20.40;6.60;;;;;;;;;;5036598;28;20452;-73
2022/10/09 07:27:36;;;;;;;21.08;6.18;;;;;;;;;;5039415;28;20398;-74
2022/10/09 07:30:02;;;;;;;23.38;5.55;;;;;;;;;;5052107;28;20208;-75
2022/10/09 07:32:28;;;;;;;20.40;5.85;;;;;;;;;;5049347;28;20222;-74
2022/10/09 07:34:54;;;;;;;16.73;5.32;;;;;;;;;;5023583;28;20033;-74
2022/10/09 07:37:20;;;;;;;25.45;6.72;;;;;;;;;;5023696;28;20120;-73
2022/10/09 07:39:46;;;;;;;19.38;4.82;;;;;;;;;;5036703;28;20032;-75
2022/10/09 07:42:12;;;;;;;17.65;5.72;;;;;;;;;;5035884;28;20029;-75
2022/10/09 07:44:38;;;;;;;19.83;5.10;;;;;;;;;;5036315;28;20037;-75
2022/10/09 07:47:04;;;;;;;22.23;5.68;;;;;;;;;;5036155;28;20101;-74
2022/10/09 07:49:30;;;;;;;25.95;6.15;;;;;;;;;;5037168;28;20026;-73
2022/10/09 07:51:56;;;;;;;21.00;5.00;;;;;;;;;;5038723;28;20067;-73
2022/10/09 07:54:22;;;;;;;30.70;5.45;;;;;;;;;;5036305;28;20029;-75
2022/10/09 07:56:48;;;;;;;19.00;4.50;;;;;;;;;;5035942;28;20100;-75
2022/10/09 07:59:15;;;;;;;23.23;5.47;;;;;;;;;;5035651;28;20025;-75
2022/10/09 08:01:41;;;;;;;15.82;4.43;;;;;;;;;;5035532;28;20021;-76
2022/10/09 08:04:08;;;;;;;17.60;4.30;;;;;;;;;;5036125;28;20028;-74
2022/10/09 08:06:34;;;;;;;18.23;4.50;;;;;;;;;;5037496;28;20025;-74
2022/10/09 08:09:01;;;;;;;21.70;4.72;;;;;;;;;;5035260;28;20029;-76
2022/10/09 08:11:27;;;;;;;12.05;3.67;;;;;;;;;;5035688;28;20021;-74
2022/10/09 08:13:54;;;;;;;19.42;4.43;;;;;;;;;;5034871;28;20025;-74
2022/10/09 08:16:20;;;;;;;13.88;3.53;;;;;;;;;;5034619;28;20546;-74
2022/10/09 08:18:46;;;;;;;19.15;3.80;;;;;;;;;;5034557;28;20060;-72
2022/10/09 08:21:14;;;;;;;17.75;3.60;;;;;;;;;;5018084;28;20033;-74
2022/10/09 08:23:40;;;;;;;13.57;3.58;;;;;;;;;;5035122;28;20068;-74
2022/10/09 08:26:13;;;;;;;14.40;4.05;;;;;;;;;;5039924;28;20052;-77
2022/10/09 08:28:39;;;;;;;14.77;3.20;;;;;;;;;;5036323;28;20033;-73
2022/10/09 08:31:12;;;;;;;15.48;3.40;;;;;;;;;;5036689;28;20535;-74
2022/10/09 08:33:38;;;;;;;15.77;3.00;;;;;;;;;;5022086;28;20096;-74
2022/10/09 08:36:06;;;;;;;20.02;3.78;;;;;;;;;;5039700;28;20053;-73
2022/10/09 08:38:32;;;;;;;10.48;2.90;;;;;;;;;;5042442;28;20028;-74
2022/10/09 08:41:04;;;;;;;12.82;3.67;;;;;;;;;;5046486;28;20066;-73
2022/10/09 08:43:33;;;;;;;18.48;3.13;;;;;;;;;;5054977;28;20198;-75
2022/10/09 08:46:02;;;;;;;12.50;2.67;;;;;;;;;;5052746;28;20033;-75
2022/10/09 08:48:29;;;;;;;14.73;3.00;;;;;;;;;;5053955;28;20060;-74
2022/10/09 08:50:56;;;;;;;14.23;3.40;;;;;;;;;;5051283;28;20048;-74
2022/10/09 08:53:26;;;;;;;18.75;3.08;;;;;;;;;;5053973;28;20018;-73
2022/10/09 08:56:00;;;;;;;13.77;2.58;;;;;;;;;;5039921;28;20036;-73
2022/10/09 08:58:30;;;;;;;11.95;2.80;;;;;;;;;;5037680;28;20467;-74
2022/10/09 09:00:56;;;;;;;11.63;2.88;;;;;;;;;;5036470;28;20116;-72
2022/10/09 09:03:45;;;;;;;11.40;2.90;;;;;;;;;;5033998;28;20056;-74
2022/10/09 09:06:26;;;;;;;18.38;2.95;;;;;;;;;;5034287;28;20475;-75
2022/10/09 09:09:11;;;;;;;14.38;2.55;;;;;;;;;;5016173;28;20030;-74
2022/10/09 09:11:36;;;;;;;;;;;;;;;;;;5033964;28;20027;-74
2022/10/09 09:14:11;;;;;;;12.55;3.05;;;;;;;;;;5015455;28;20294;-75
2022/10/09 09:16:49;;;;;;;16.35;2.72;;;;;;;;;;5033063;28;20048;-75
2022/10/09 09:19:17;;;;;;;15.43;2.55;;;;;;;;;;5015426;28;20038;-73
2022/10/09 09:21:48;;;;;;;14.68;2.10;;;;;;;;;;5032886;28;20021;-74
2022/10/09 09:24:19;;;;;;;11.73;2.22;;;;;;;;;;5033172;28;20382;-74
2022/10/09 09:26:46;;;;;;;8.45;2.35;;;;;;;;;;5032802;28;20201;-74
2022/10/09 09:29:15;;;;;;;14.52;2.50;;;;;;;;;;5033122;28;20151;-76
2022/10/09 09:31:42;;;;;;;12.60;2.90;;;;;;;;;;5032782;28;20029;-75
2022/10/09 09:34:19;;;;;;;12.15;2.60;;;;;;;;;;5032432;28;20029;-74
2022/10/09 09:36:58;;;;;;;13.48;2.17;;;;;;;;;;5032798;28;20021;-75
2022/10/09 09:39:25;;;;;;;8.13;2.00;;;;;;;;;;5033275;28;20064;-75
2022/10/09 09:41:52;;;;;;;9.60;2.10;;;;;;;;;;5033033;28;20025;-75
2022/10/09 09:44:19;;;;;;;7.40;2.40;;;;;;;;;;5033218;28;20053;-73
2022/10/09 09:46:45;;;;;;;14.32;1.90;;;;;;;;;;5034110;28;20021;-73
2022/10/09 09:49:19;;;;;;;12.15;1.83;;;;;;;;;;5050490;28;20077;-73
2022/10/09 09:51:46;;;;;;;11.30;1.85;;;;;;;;;;5045901;28;20033;-73
2022/10/09 09:54:30;;;;;;;8.68;1.60;;;;;;;;;;5054334;28;20010;-74
2022/10/09 09:56:57;;;;;;;9.98;1.67;;;;;;;;;;5049247;28;20009;-74
2022/10/09 09:59:35;;;;;;;10.45;1.70;;;;;;;;;;5035222;28;20049;-75
2022/10/09 10:02:17;;;;;;;13.75;1.92;;;;;;;;;;5015958;28;20367;-73
2022/10/09 10:04:48;;;;;;;8.18;1.85;;;;;;;;;;5033124;28;20018;-73
2022/10/09 10:07:14;;;;;;;8.13;1.85;;;;;;;;;;5033595;28;20017;-74
2022/10/09 10:09:40;;;;;;;10.82;1.92;;;;;;;;;;5036167;28;20052;-72
2022/10/09 10:12:06;;;;;;;8.10;2.05;;;;;;;;;;5034754;28;20106;-73
2022/10/09 10:14:32;;;;;;;10.45;2.40;;;;;;;;;;5033132;28;20029;-73
2022/10/09 10:16:59;;;;;;;23.15;5.97;;;;;;;;;;5032918;28;20034;-74
2022/10/09 10:19:26;;;;;;;9.68;2.00;;;;;;;;;;5032488;28;20026;-73
2022/10/09 10:21:55;;;;;;;12.40;2.17;;;;;;;;;;5032923;28;20031;-74
2022/10/09 10:24:26;;;;;;;11.80;2.20;;;;;;;;;;5034146;28;20383;-73
2022/10/09 10:26:55;;;;;;;7.43;2.28;;;;;;;;;;5036443;28;20025;-73
2022/10/09 10:29:31;;;;;;;10.68;2.05;;;;;;;;;;5034071;28;20030;-73
2022/10/09 10:32:12;;;;;;;11.02;2.03;;;;;;;;;;5034027;28;20029;-73
2022/10/09 10:34:41;;;;;;;9.80;2.40;;;;;;;;;;5032716;28;20084;-73
2022/10/09 10:37:13;;;;;;;16.58;2.40;;;;;;;;;;5032839;28;20108;-73
2022/10/09 10:39:39;;;;;;;9.95;2.20;;;;;;;;;;5032621;28;20025;-73
2022/10/09 10:42:09;;;;;;;9.65;2.05;;;;;;;;;;5032703;28;20037;-73
2022/10/09 10:44:54;;;;;;;13.93;3.28;;;;;;;;;;5032421;28;20490;-73
2022/10/09 10:47:20;;;;;;;;;;;;;;;;;;5036993;28;20021;-73
2022/10/09 10:49:46;;;;;;;12.25;2.10;;;;;;;;;;5036189;28;19931;-74
2022/10/09 10:52:20;;;;;;;9.77;2.55;;;;;;;;;;5036382;28;20100;-74
2022/10/09 10:54:59;;;;;;;10.88;2.38;;;;;;;;;;5036433;28;20041;-73
2022/10/09 10:57:43;;;;;;;13.85;2.75;;;;;;;;;;5036186;28;20451;-73
2022/10/09 11:00:11;;;;;;;11.85;2.35;;;;;;;;;;5036034;28;20482;-74
2022/10/09 11:02:59;;;;;;;10.30;2.45;;;;;;;;;;5036382;28;20032;-73
2022/10/09 11:05:44;;;;;;;15.20;2.65;;;;;;;;;;5021021;28;20033;-74
2022/10/09 11:08:10;;;;;;;;;;;;;;;;;;5040456;28;20056;-76
2022/10/09 11:10:54;;;;;;;13.55;2.58;;;;;;;;;;5046152;28;19905;-72
2022/10/09 11:13:24;;;;;;;14.20;2.92;;;;;;;;;;5051729;28;20045;-71
2022/10/09 11:16:07;;;;;;;13.70;2.25;;;;;;;;;;5052219;28;20044;-74
2022/10/09 11:18:51;;;;;;;9.43;1.88;;;;;;;;;;5050888;28;20100;-74
2022/10/09 11:21:23;;;;;;;11.18;1.98;;;;;;;;;;5051982;28;20021;-73
2022/10/09 11:23:56;;;;;;;13.88;2.40;;;;;;;;;;5047706;28;20028;-73
2022/10/09 11:26:34;;;;;;;10.10;1.80;;;;;;;;;;5050332;28;20053;-73
2022/10/09 11:29:02;;;;;;;14.18;2.17;;;;;;;;;;5036118;28;20037;-72
2022/10/09 11:31:49;;;;;;;11.05;2.25;;;;;;;;;;5036333;28;20031;-73
2022/10/09 11:34:19;;;;;;;12.70;2.13;;;;;;;;;;5022369;28;20037;-73
2022/10/09 11:36:45;;;;;;;12.52;2.20;;;;;;;;;;5018248;28;20029;-71
2022/10/09 11:39:16;;;;;;;10.40;2.08;;;;;;;;;;5036070;28;20025;-71
2022/10/09 11:41:45;;;;;;;11.35;2.20;;;;;;;;;;5020893;28;20037;-71
2022/10/09 11:44:32;;;;;;;12.50;2.22;;;;;;;;;;5046647;28;20026;-73
2022/10/09 11:47:17;;;;;;;11.70;2.35;;;;;;;;;;5044940;28;20025;-72
2022/10/09 11:49:58;;;;;;;11.20;2.00;;;;;;;;;;5037535;28;20029;-73
2022/10/09 11:52:27;;;;;;;7.07;1.60;;;;;;;;;;5036073;28;20060;-72
2022/10/09 11:54:53;;;;;;;10.68;2.45;;;;;;;;;;5036391;28;20040;-72
2022/10/09 11:57:26;;;;;;;9.10;1.92;;;;;;;;;;5036852;28;20025;-74
2022/10/09 12:00:01;;;;;;;8.75;2.28;;;;;;;;;;5037748;28;20368;-71
2022/10/09 12:02:30;;;;;;;10.70;2.00;;;;;;;;;;5038038;28;20053;-74
2022/10/09 12:04:56;;;;;;;18.23;3.42;;;;;;;;;;5036398;28;20022;-74
2022/10/09 12:07:48;;;;;;;13.20;1.90;;;;;;;;;;5035691;28;20025;-72
2022/10/09 12:10:33;;;;;;;12.55;2.00;;;;;;;;;;5032069;28;20451;-73
2022/10/09 12:13:01;;;;;;;11.23;1.92;;;;;;;;;;5035683;28;20483;-74
2022/10/09 12:15:48;;;;;;;8.77;1.90;;;;;;;;;;5036102;28;20021;-75
2022/10/09 12:18:16;;;;;;;12.45;2.58;;;;;;;;;;5021464;28;20426;-73
2022/10/09 12:20:44;;;;;;;14.35;2.00;;;;;;;;;;5035532;28;20052;-74
2022/10/09 12:23:11;;;;;;;11.55;2.33;;;;;;;;;;5035168;28;20029;-74
2022/10/09 12:25:45;;;;;;;10.02;2.45;;;;;;;;;;5035824;28;20405;-74
2022/10/09 12:28:19;;;;;;;12.70;2.13;;;;;;;;;;5056656;23;20060;-73
2022/10/09 12:30:47;;;;;;;10.80;2.35;;;;;;;;;;5033791;28;20494;-75
2022/10/09 12:33:13;;;;;;;10.02;2.33;;;;;;;;;;5033609;28;20112;-74
2022/10/09 12:35:41;;;;;;;8.35;1.90;;;;;;;;;;5033936;28;20057;-76
2022/10/09 12:38:16;;;;;;;6.53;1.52;;;;;;;;;;5034426;28;20072;-76
2022/10/09 12:40:45;;;;;;;12.52;2.05;;;;;;;;;;5034625;28;20117;-75
2022/10/09 12:43:14;;;;;;;9.27;2.10;;;;;;;;;;5035651;28;20021;-75
2022/10/09 12:45:45;;;;;;;9.25;2.00;;;;;;;;;;5018307;28;20028;-75
2022/10/09 12:48:12;;;;;;;10.20;1.70;;;;;;;;;;5035339;28;20029;-75
2022/10/09 12:50:39;;;;;;;8.52;2.00;;;;;;;;;;5039055;28;20075;-76
2022/10/09 12:53:05;;;;;;;8.43;2.05;;;;;;;;;;5043531;28;20425;-79
2022/10/09 12:55:35;;;;;;;10.82;2.72;;;;;;;;;;5052378;28;20032;-78
2022/10/09 12:58:08;;;;;;;10.10;3.13;;;;;;;;;;5053456;28;20028;-79
2022/10/09 13:00:34;;;;;;;8.90;1.90;;;;;;;;;;5050621;28;20049;-77
2022/10/09 13:03:01;;;;;;;8.00;1.60;;;;;;;;;;5042098;28;20030;-77
2022/10/09 13:05:40;;;;;;;10.73;3.00;;;;;;;;;;5015755;28;20025;-77
2022/10/09 13:08:15;;;;;;;10.30;2.13;;;;;;;;;;5032946;28;20517;-77
2022/10/09 13:10:40;;;;;;;8.35;2.03;;;;;;;;;;5034307;28;20177;-78
2022/10/09 13:13:18;;;;;;;12.57;2.45;;;;;;;;;;5033852;28;20502;-75
2022/10/09 13:15:44;;;;;;;10.02;1.90;;;;;;;;;;5016499;28;20151;-77
2022/10/09 13:18:19;;;;;;;11.95;2.05;;;;;;;;;;5034620;28;20025;-77
2022/10/09 13:20:45;;;;;;;10.00;2.33;;;;;;;;;;5016340;28;20037;-77
2022/10/09 13:23:26;;;;;;;14.27;2.30;;;;;;;;;;5032530;28;20386;-78
2022/10/09 13:25:52;;;;;;;15.23;3.20;;;;;;;;;;5033160;28;20022;-76
2022/10/09 13:28:19;;;;;;;12.65;2.78;;;;;;;;;;5033472;28;20095;-77
2022/10/09 13:30:45;;;;;;;9.70;2.35;;;;;;;;;;5033732;28;20610;-77
2022/10/09 13:33:12;;;;;;;11.30;2.17;;;;;;;;;;5032931;28;20036;-76
2022/10/09 13:35:38;;;;;;;11.48;1.98;;;;;;;;;;5033138;28;20026;-76
2022/10/09 13:38:04;;;;;;;8.68;1.98;;;;;;;;;;5016780;28;20029;-77
2022/10/09 13:40:30;;;;;;;7.43;1.80;;;;;;;;;;5033311;28;20055;-75
2022/10/09 13:43:00;;;;;;;8.70;1.92;;;;;;;;;;5034135;28;20047;-77
2022/10/09 13:45:26;;;;;;;12.95;1.95;;;;;;;;;;5032821;28;20390;-78
2022/10/09 13:47:52;;;;;;;10.45;2.22;;;;;;;;;;5033974;28;20033;-81
2022/10/09 13:50:18;;;;;;;14.15;2.20;;;;;;;;;;5033429;28;20026;-78
2022/10/09 13:52:44;;;;;;;10.00;2.17;;;;;;;;;;5033566;28;20052;-80
2022/10/09 13:55:11;;;;;;;8.60;2.00;;;;;;;;;;5033283;28;20029;-77
2022/10/09 13:57:37;;;;;;;7.25;1.50;;;;;;;;;;5033003;28;20024;-76
2022/10/09 14:00:04;;;;;;;9.90;2.33;;;;;;;;;;5035133;28;20108;-77
2022/10/09 14:02:30;;;;;;;8.18;2.03;;;;;;;;;;5031231;28;20040;-78
2022/10/09 14:04:55;;;;;;;8.18;1.58;;;;;;;;;;5034316;28;20038;-77
2022/10/09 14:07:21;;;;;;;10.68;2.28;;;;;;;;;;5031331;28;20029;-79
2022/10/09 14:09:47;;;;;;;8.32;1.92;;;;;;;;;;5040938;28;20029;-78
2022/10/09 14:12:13;;;;;;;10.20;1.55;;;;;;;;;;5033337;28;20501;-77
2022/10/09 14:14:39;;;;;;;8.98;1.90;;;;;;;;;;5034033;28;20386;-76
2022/10/09 14:17:05;;;;;;;10.80;2.30;;;;;;;;;;5015141;28;20116;-77
2022/10/09 14:19:31;;;;;;;8.98;1.80;;;;;;;;;;5033082;28;20421;-77
2022/10/09 14:21:57;;;;;;;8.23;1.95;;;;;;;;;;5032377;28;20497;-77
2022/10/09 14:24:24;;;;;;;9.13;1.65;;;;;;;;;;5049938;28;20046;-75
2022/10/09 14:26:51;;;;;;;8.70;1.80;;;;;;;;;;5046414;28;20021;-77
2022/10/09 14:29:17;;;;;;;5.45;1.48;;;;;;;;;;5035252;28;20045;-77
2022/10/09 14:31:43;;;;;;;6.70;1.58;;;;;;;;;;5024147;28;20025;-78
2022/10/09 14:34:10;;;;;;;11.43;2.08;;;;;;;;;;5041155;28;20037;-76
2022/10/09 14:36:36;;;;;;;8.13;2.10;;;;;;;;;;5039025;28;20492;-76
2022/10/09 14:39:03;;;;;;;9.48;2.55;;;;;;;;;;5040448;28;20049;-76
2022/10/09 14:41:29;;;;;;;8.55;1.83;;;;;;;;;;5038449;28;20026;-76